createdAt,value
2019-04-20T00:00:06.233Z,3.60
2019-04-20T00:01:03.376Z,5.70
2019-04-20T00:02:08.235Z,4.40
2019-04-20T00:03:03.391Z,3.30
2019-04-20T00:04:01.437Z,5.40
2019-04-20T00:05:01.426Z,4.90
2019-04-20T00:06:01.588Z,5.20
2019-04-20T00:07:01.938Z,4.70
2019-04-20T00:08:09.133Z,4.20
2019-04-20T00:09:07.394Z,4.90
2019-04-20T00:10:08.712Z,6.20
2019-04-20T00:11:08.070Z,4.50
2019-04-20T00:12:10.841Z,5.20
2019-04-20T00:13:16.607Z,3.60
2019-04-20T00:14:08.965Z,5.40
2019-04-20T00:15:02.964Z,5.80
2019-04-20T00:16:02.024Z,4.20
2019-04-20T00:17:01.300Z,4.60
2019-04-20T00:18:04.605Z,4.20
2019-04-20T00:19:05.228Z,4.70
2019-04-20T00:20:09.254Z,4.80
2019-04-20T00:21:08.271Z,4.40
2019-04-20T00:22:07.042Z,4.60
2019-04-20T00:23:02.231Z,4.60
2019-04-20T00:24:10.315Z,5.80
2019-04-20T00:25:06.610Z,6.10
2019-04-20T00:26:12.303Z,6.40
2019-04-20T00:27:28.435Z,4.80
2019-04-20T00:28:19.930Z,4.00
2019-04-20T00:29:23.938Z,5.80
2019-04-20T00:30:24.839Z,5.00
2019-04-20T00:31:19.014Z,5.80
2019-04-20T00:32:12.573Z,4.30
2019-04-20T00:33:14.765Z,4.80
2019-04-20T00:34:11.171Z,4.80
2019-04-20T00:35:02.244Z,6.20
2019-04-20T00:36:01.197Z,5.70
2019-04-20T00:37:02.329Z,6.20
2019-04-20T00:38:01.279Z,6.40
2019-04-20T00:39:04.535Z,5.80
2019-04-20T00:40:02.046Z,6.10
2019-04-20T00:41:05.607Z,7.50
2019-04-20T00:42:06.570Z,5.80
2019-04-20T00:43:03.021Z,9.20
2019-04-20T00:44:08.337Z,6.20
2019-04-20T00:45:08.463Z,5.20
2019-04-20T00:46:09.172Z,5.50
2019-04-20T00:47:12.903Z,6.10
2019-04-20T00:48:06.801Z,5.90
2019-04-20T00:49:17.259Z,5.50
2019-04-20T00:50:21.340Z,7.60
2019-04-20T00:51:23.885Z,4.50
2019-04-20T00:52:31.155Z,5.00
2019-04-20T00:53:12.411Z,6.70
2019-04-20T00:54:02.658Z,5.70
2019-04-20T00:55:02.382Z,6.60
2019-04-20T00:56:01.292Z,5.00
2019-04-20T00:57:14.404Z,5.40
2019-04-20T00:58:14.751Z,4.60
2019-04-20T00:59:12.977Z,5.60
2019-04-20T01:00:24.389Z,5.60
2019-04-20T01:01:20.316Z,4.70
2019-04-20T01:02:19.197Z,5.10
2019-04-20T01:03:19.767Z,4.80
2019-04-20T01:04:21.204Z,3.60
2019-04-20T01:05:18.003Z,4.60
2019-04-20T01:06:22.187Z,4.30
2019-04-20T01:07:15.199Z,6.30
2019-04-20T01:08:04.905Z,5.10
2019-04-20T01:09:01.345Z,8.40
2019-04-20T01:10:00.725Z,5.80
2019-04-20T01:11:01.516Z,5.80
2019-04-20T01:12:05.121Z,5.90
2019-04-20T01:13:08.716Z,4.60
2019-04-20T01:14:07.103Z,5.10
2019-04-20T01:15:05.581Z,6.60
2019-04-20T01:16:08.708Z,5.40
2019-04-20T01:17:11.404Z,5.80
2019-04-20T01:18:01.637Z,5.00
2019-04-20T01:19:00.628Z,6.80
2019-04-20T01:20:00.615Z,5.00
2019-04-20T01:21:07.693Z,5.90
2019-04-20T01:22:07.085Z,5.00
2019-04-20T01:23:07.470Z,7.20
2019-04-20T01:24:04.638Z,4.40
2019-04-20T01:25:11.992Z,7.20
2019-04-20T01:26:06.141Z,6.50
2019-04-20T01:27:04.112Z,6.30
2019-04-20T01:28:13.011Z,5.30
2019-04-20T01:29:15.839Z,6.20
2019-04-20T01:30:10.501Z,6.10
2019-04-20T01:31:17.728Z,6.30
2019-04-20T01:32:10.456Z,5.10
2019-04-20T01:33:16.297Z,5.60
2019-04-20T01:34:08.357Z,8.00
2019-04-20T01:35:19.688Z,5.70
2019-04-20T01:36:19.536Z,7.40
2019-04-20T01:37:19.543Z,8.80
2019-04-20T01:38:25.056Z,5.20
2019-04-20T01:39:13.639Z,6.00
2019-04-20T01:40:04.436Z,6.20
2019-04-20T01:41:01.251Z,6.50
2019-04-20T01:42:00.419Z,5.20
2019-04-20T01:43:01.565Z,6.00
2019-04-20T01:44:00.533Z,6.40
2019-04-20T01:45:00.387Z,6.30
2019-04-20T01:46:08.125Z,6.70
2019-04-20T01:47:04.889Z,6.40
2019-04-20T01:48:03.021Z,7.60
2019-04-20T01:49:09.189Z,4.90
2019-04-20T01:50:08.495Z,8.60
2019-04-20T01:51:07.153Z,6.80
2019-04-20T01:52:10.779Z,5.90
2019-04-20T01:53:12.513Z,5.70
2019-04-20T01:54:15.852Z,7.60
2019-04-20T01:55:17.405Z,5.80
2019-04-20T01:56:18.140Z,6.40
2019-04-20T01:57:11.602Z,4.80
2019-04-20T01:58:17.684Z,7.00
2019-04-20T01:59:16.386Z,6.50
2019-04-20T02:00:09.479Z,7.20
2019-04-20T02:01:09.797Z,6.50
2019-04-20T02:02:05.183Z,6.60
2019-04-20T02:03:04.814Z,4.90
2019-04-20T02:04:01.755Z,7.60
2019-04-20T02:05:11.339Z,6.90
2019-04-20T02:06:06.153Z,7.00
2019-04-20T02:07:03.346Z,5.40
2019-04-20T02:08:00.358Z,6.10
2019-04-20T02:09:06.462Z,6.60
2019-04-20T02:10:05.035Z,5.50
2019-04-20T02:11:05.377Z,7.00
2019-04-20T02:12:08.433Z,6.20
2019-04-20T02:13:04.355Z,7.40
2019-04-20T02:14:04.920Z,6.00
2019-04-20T02:15:04.372Z,7.90
2019-04-20T02:16:11.438Z,6.30
2019-04-20T02:17:09.592Z,6.60
2019-04-20T02:18:16.225Z,7.20
2019-04-20T02:19:13.799Z,8.40
2019-04-20T02:20:25.280Z,5.60
2019-04-20T02:21:22.327Z,5.50
2019-04-20T02:22:13.204Z,6.50
2019-04-20T02:23:14.540Z,5.40
2019-04-20T02:24:04.637Z,7.10
2019-04-20T02:25:01.729Z,5.60
2019-04-20T02:26:00.853Z,6.50
2019-04-20T02:26:59.950Z,6.50
2019-04-20T02:28:18.942Z,6.90
2019-04-20T02:29:24.646Z,7.10
2019-04-20T02:30:32.494Z,5.50
2019-04-20T02:32:45.695Z,7.00
2019-04-20T02:33:45.016Z,5.80
2019-04-20T02:34:39.785Z,9.80
2019-04-20T02:35:36.711Z,5.90
2019-04-20T02:36:45.756Z,5.50
2019-04-20T02:37:36.266Z,5.70
2019-04-20T02:38:56.428Z,6.70
2019-04-20T02:39:37.555Z,6.10
2019-04-20T02:40:45.172Z,6.50
2019-04-20T02:42:34.071Z,8.50
2019-04-20T02:43:51.712Z,8.60
2019-04-20T02:46:36.587Z,6.00
2019-04-20T02:47:43.216Z,7.10
2019-04-20T02:48:35.677Z,7.40
2019-04-20T02:49:35.456Z,6.50
2019-04-20T02:51:39.291Z,6.40
2019-04-20T02:52:38.228Z,7.40
2019-04-20T02:54:26.174Z,6.10
2019-04-20T02:55:48.315Z,6.40
2019-04-20T02:58:34.732Z,7.10
2019-04-20T03:00:25.089Z,8.00
2019-04-20T03:01:20.496Z,6.40
2019-04-20T03:02:19.497Z,7.80
2019-04-20T03:03:16.369Z,7.30
2019-04-20T03:04:04.881Z,8.30
2019-04-20T03:05:13.688Z,7.80
2019-04-20T03:06:13.369Z,7.40
2019-04-20T03:07:14.903Z,8.20
2019-04-20T03:08:20.594Z,8.10
2019-04-20T03:10:17.674Z,8.50
2019-04-20T03:11:20.873Z,8.70
2019-04-20T03:12:23.817Z,6.00
2019-04-20T03:13:19.765Z,7.30
2019-04-20T03:14:19.057Z,7.50
2019-04-20T03:15:23.967Z,6.80
2019-04-20T03:16:21.919Z,7.80
2019-04-20T03:17:21.429Z,8.60
2019-04-20T03:18:21.289Z,9.50
2019-04-20T03:19:18.742Z,7.70
2019-04-20T03:20:25.616Z,6.80
2019-04-20T03:21:24.758Z,9.00
2019-04-20T03:22:51.236Z,6.80
2019-04-20T03:24:29.162Z,8.10
2019-04-20T03:25:23.812Z,8.90
2019-04-20T03:26:22.524Z,7.50
2019-04-20T03:27:22.279Z,10.50
2019-04-20T03:28:18.298Z,7.60
2019-04-20T03:29:13.009Z,8.20
2019-04-20T03:30:58.777Z,10.00
2019-04-20T03:31:53.730Z,7.00
2019-04-20T03:33:44.770Z,7.70
2019-04-20T03:34:48.668Z,8.00
2019-04-20T03:35:24.582Z,7.90
2019-04-20T03:36:31.821Z,7.30
2019-04-20T03:37:26.729Z,7.20
2019-04-20T03:38:19.856Z,8.40
2019-04-20T03:39:19.075Z,11.30
2019-04-20T03:40:16.901Z,7.90
2019-04-20T03:41:11.739Z,10.00
2019-04-20T03:42:01.041Z,8.10
2019-04-20T03:42:59.174Z,9.20
2019-04-20T03:44:04.487Z,8.50
2019-04-20T03:45:05.773Z,9.40
2019-04-20T03:46:07.414Z,7.30
2019-04-20T03:47:05.415Z,10.20
2019-04-20T03:48:09.018Z,7.90
2019-04-20T03:49:21.322Z,9.30
2019-04-20T03:50:25.647Z,10.50
2019-04-20T03:51:23.928Z,9.40
2019-04-20T03:52:19.282Z,7.40
2019-04-20T03:53:23.688Z,10.40
2019-04-20T03:54:16.560Z,8.20
2019-04-20T03:55:16.209Z,8.00
2019-04-20T03:56:26.428Z,9.10
2019-04-20T03:57:19.701Z,7.50
2019-04-20T03:58:19.722Z,10.40
2019-04-20T03:59:11.576Z,8.50
2019-04-20T04:00:16.241Z,9.70
2019-04-20T04:01:27.290Z,8.40
2019-04-20T04:02:29.709Z,8.20
2019-04-20T04:03:32.831Z,10.10
2019-04-20T04:04:25.407Z,8.10
2019-04-20T04:05:19.377Z,9.50
2019-04-20T04:06:12.846Z,11.00
2019-04-20T04:07:02.758Z,10.10
2019-04-20T04:08:10.572Z,10.00
2019-04-20T04:09:12.183Z,8.70
2019-04-20T04:10:16.914Z,10.90
2019-04-20T04:11:18.930Z,10.70
2019-04-20T04:12:12.177Z,9.30
2019-04-20T04:13:01.059Z,11.80
2019-04-20T04:13:58.849Z,10.10
2019-04-20T04:14:59.848Z,9.80
2019-04-20T04:16:03.278Z,8.90
2019-04-20T04:17:02.597Z,8.40
2019-04-20T04:18:07.400Z,11.30
2019-04-20T04:19:09.980Z,9.80
2019-04-20T04:20:05.094Z,13.50
2019-04-20T04:21:06.329Z,11.20
2019-04-20T04:22:12.261Z,9.00
2019-04-20T04:23:16.245Z,9.20
2019-04-20T04:24:12.890Z,12.50
2019-04-20T04:25:14.876Z,10.60
2019-04-20T04:26:16.666Z,12.70
2019-04-20T04:27:14.955Z,9.70
2019-04-20T04:28:15.406Z,11.20
2019-04-20T04:29:19.153Z,7.80
2019-04-20T04:30:16.499Z,9.60
2019-04-20T04:31:16.507Z,9.90
2019-04-20T04:32:35.496Z,10.90
2019-04-20T04:33:40.232Z,10.50
2019-04-20T04:34:17.724Z,11.00
2019-04-20T04:35:14.991Z,9.50
2019-04-20T04:36:13.769Z,10.20
2019-04-20T04:37:21.656Z,11.80
2019-04-20T04:38:24.066Z,11.10
2019-04-20T04:39:22.553Z,10.20
2019-04-20T04:40:29.599Z,9.60
2019-04-20T04:41:25.615Z,10.80
2019-04-20T04:42:23.759Z,9.70
2019-04-20T04:43:19.789Z,11.10
2019-04-20T04:44:15.210Z,10.50
2019-04-20T04:45:04.907Z,10.90
2019-04-20T04:45:59.627Z,9.10
2019-04-20T04:47:02.748Z,9.60
2019-04-20T04:47:59.818Z,9.00
2019-04-20T04:49:08.775Z,10.50
2019-04-20T04:50:09.164Z,11.80
2019-04-20T04:51:06.253Z,11.60
2019-04-20T04:52:06.267Z,9.00
2019-04-20T04:53:07.587Z,10.20
2019-04-20T04:54:10.208Z,11.70
2019-04-20T04:55:10.873Z,10.70
2019-04-20T04:56:05.731Z,11.50
2019-04-20T04:56:59.303Z,12.00
2019-04-20T04:57:58.329Z,9.30
2019-04-20T04:58:58.303Z,10.60
2019-04-20T04:59:59.441Z,12.00
2019-04-20T05:01:05.605Z,12.40
2019-04-20T05:02:00.497Z,11.90
2019-04-20T05:03:03.856Z,12.30
2019-04-20T05:04:23.251Z,12.30
2019-04-20T05:05:17.611Z,12.10
2019-04-20T05:06:19.685Z,14.40
2019-04-20T05:07:12.814Z,13.20
2019-04-20T05:08:10.231Z,14.80
2019-04-20T05:09:02.348Z,11.00
2019-04-20T05:09:59.230Z,15.10
2019-04-20T05:10:58.351Z,12.80
2019-04-20T05:12:05.435Z,12.10
2019-04-20T05:12:59.132Z,10.70
2019-04-20T05:14:03.268Z,12.30
2019-04-20T05:15:07.597Z,14.50
2019-04-20T05:16:13.203Z,14.30
2019-04-20T05:17:15.103Z,10.50
2019-04-20T05:18:20.654Z,14.10
2019-04-20T05:19:19.635Z,13.20
2019-04-20T05:20:19.017Z,12.50
2019-04-20T05:21:20.802Z,15.30
2019-04-20T05:22:20.606Z,14.00
2019-04-20T05:23:12.942Z,11.20
2019-04-20T05:24:13.186Z,12.50
2019-04-20T05:25:18.439Z,12.60
2019-04-20T05:26:20.012Z,13.00
2019-04-20T05:27:20.788Z,14.00
2019-04-20T05:28:14.456Z,11.30
2019-04-20T05:29:08.493Z,11.40
2019-04-20T05:29:59.224Z,11.70
2019-04-20T05:31:02.811Z,11.20
2019-04-20T05:32:07.342Z,13.70
2019-04-20T05:33:05.777Z,12.80
2019-04-20T05:34:20.300Z,11.10
2019-04-20T05:35:23.673Z,14.10
2019-04-20T05:36:18.602Z,12.70
2019-04-20T05:37:29.731Z,12.20
2019-04-20T05:38:28.353Z,11.20
2019-04-20T05:40:23.745Z,13.50
2019-04-20T05:41:17.381Z,12.30
2019-04-20T05:42:26.258Z,13.80
2019-04-20T05:43:15.384Z,13.60
2019-04-20T05:44:12.788Z,12.40
2019-04-20T05:45:16.697Z,13.40
2019-04-20T05:46:22.009Z,12.80
2019-04-20T05:47:16.939Z,12.50
2019-04-20T05:48:14.280Z,13.40
2019-04-20T05:49:23.415Z,13.80
2019-04-20T05:50:17.897Z,12.00
2019-04-20T05:51:26.885Z,9.90
2019-04-20T05:52:31.628Z,11.70
2019-04-20T05:53:19.269Z,12.30
2019-04-20T05:54:23.456Z,12.90
2019-04-20T05:55:21.115Z,15.50
2019-04-20T05:56:20.338Z,14.50
2019-04-20T05:57:25.196Z,14.70
2019-04-20T05:58:23.351Z,11.10
2019-04-20T05:59:17.858Z,11.80
2019-04-20T06:00:21.509Z,12.30
2019-04-20T06:01:20.245Z,14.10
2019-04-20T06:02:23.372Z,12.70
2019-04-20T06:03:18.478Z,15.80
2019-04-20T06:04:30.038Z,13.70
2019-04-20T06:05:25.546Z,11.60
2019-04-20T06:06:14.111Z,12.20
2019-04-20T06:07:23.962Z,12.90
2019-04-20T06:08:26.391Z,13.40
2019-04-20T06:09:22.956Z,13.00
2019-04-20T06:10:20.475Z,12.80
2019-04-20T06:11:20.974Z,12.20
2019-04-20T06:12:20.107Z,15.10
2019-04-20T06:13:15.009Z,13.50
2019-04-20T06:14:08.045Z,13.40
2019-04-20T06:15:11.658Z,12.00
2019-04-20T06:16:14.439Z,13.40
2019-04-20T06:17:20.949Z,11.30
2019-04-20T06:18:13.551Z,15.70
2019-04-20T06:19:26.460Z,12.30
2019-04-20T06:20:19.741Z,14.00
2019-04-20T06:21:26.503Z,14.70
2019-04-20T06:22:29.633Z,14.20
2019-04-20T06:23:24.589Z,13.60
2019-04-20T06:24:26.735Z,12.40
2019-04-20T06:26:36.987Z,15.60
2019-04-20T06:27:14.904Z,16.50
2019-04-20T06:28:17.537Z,12.40
2019-04-20T06:30:13.744Z,13.10
2019-04-20T06:31:26.491Z,13.20
2019-04-20T06:32:29.527Z,11.30
2019-04-20T06:33:21.954Z,12.40
2019-04-20T06:35:33.586Z,13.10
2019-04-20T06:36:27.502Z,13.60
2019-04-20T06:37:19.367Z,12.00
2019-04-20T06:38:39.695Z,11.60
2019-04-20T06:39:19.978Z,11.50
2019-04-20T06:40:36.398Z,12.90
2019-04-20T06:41:31.774Z,15.30
2019-04-20T06:42:34.817Z,12.10
2019-04-20T06:43:19.267Z,13.00
2019-04-20T06:44:23.790Z,13.50
2019-04-20T06:45:27.734Z,12.10
2019-04-20T06:46:24.083Z,13.60
2019-04-20T06:47:19.908Z,12.70
2019-04-20T06:48:31.047Z,12.50
2019-04-20T06:49:22.686Z,12.80
2019-04-20T06:50:18.495Z,11.40
2019-04-20T06:51:23.350Z,11.80
2019-04-20T06:52:24.315Z,12.50
2019-04-20T06:53:28.582Z,12.30
2019-04-20T06:54:10.458Z,14.40
2019-04-20T06:55:13.892Z,12.50
2019-04-20T06:56:23.499Z,10.60
2019-04-20T06:57:19.615Z,13.80
2019-04-20T06:58:36.387Z,12.50
2019-04-20T06:59:27.718Z,15.40
2019-04-20T07:00:34.700Z,11.50
2019-04-20T07:01:17.170Z,12.10
2019-04-20T07:02:22.173Z,12.30
2019-04-20T07:03:30.941Z,12.20
2019-04-20T07:05:20.117Z,14.50
2019-04-20T07:06:41.847Z,12.20
2019-04-20T07:07:19.595Z,12.60
2019-04-20T07:08:34.601Z,14.10
2019-04-20T07:09:21.761Z,13.90
2019-04-20T07:11:25.344Z,10.40
2019-04-20T07:12:17.102Z,15.00
2019-04-20T07:13:11.610Z,10.20
2019-04-20T07:14:02.914Z,13.20
2019-04-20T07:15:16.310Z,12.80
2019-04-20T07:16:21.373Z,12.50
2019-04-20T07:17:31.621Z,13.90
2019-04-20T07:18:24.559Z,11.60
2019-04-20T07:19:21.372Z,10.60
2019-04-20T07:20:15.482Z,15.30
2019-04-20T07:21:23.450Z,11.70
2019-04-20T07:22:33.485Z,12.20
2019-04-20T07:23:26.599Z,10.90
2019-04-20T07:24:25.186Z,10.50
2019-04-20T07:25:23.162Z,11.40
2019-04-20T07:26:22.258Z,12.10
2019-04-20T07:27:17.854Z,11.70
2019-04-20T07:28:20.302Z,11.60
2019-04-20T07:29:20.994Z,12.00
2019-04-20T07:30:19.468Z,12.00
2019-04-20T07:31:20.509Z,12.30
2019-04-20T07:32:10.262Z,10.60
2019-04-20T07:33:21.676Z,11.80
2019-04-20T07:34:23.012Z,13.90
2019-04-20T07:35:23.253Z,14.40
2019-04-20T07:36:26.594Z,14.60
2019-04-20T07:37:51.783Z,12.80
2019-04-20T07:39:26.599Z,12.20
2019-04-20T07:40:28.983Z,12.50
2019-04-20T07:41:28.438Z,13.20
2019-04-20T07:42:27.240Z,13.40
2019-04-20T07:43:17.413Z,9.90
2019-04-20T07:44:29.885Z,13.30
2019-04-20T07:45:33.006Z,11.30
2019-04-20T07:46:34.593Z,13.10
2019-04-20T07:47:22.046Z,13.60
2019-04-20T07:48:30.740Z,12.20
2019-04-20T07:49:22.435Z,13.10
2019-04-20T07:50:13.552Z,9.20
2019-04-20T07:51:06.805Z,10.70
2019-04-20T07:51:57.671Z,11.00
2019-04-20T07:53:13.489Z,15.70
2019-04-20T07:54:24.499Z,13.50
2019-04-20T07:55:42.243Z,14.90
2019-04-20T07:56:20.792Z,13.80
2019-04-20T07:57:14.612Z,14.90
2019-04-20T07:58:08.340Z,16.60
2019-04-20T07:59:11.631Z,13.90
2019-04-20T08:00:19.898Z,11.40
2019-04-20T08:01:22.513Z,13.20
2019-04-20T08:02:23.569Z,11.40
2019-04-20T08:03:22.278Z,13.30
2019-04-20T08:04:17.399Z,14.90
2019-04-20T08:05:11.928Z,12.00
2019-04-20T08:06:06.830Z,11.60
2019-04-20T08:07:02.123Z,15.00
2019-04-20T08:08:17.154Z,12.90
2019-04-20T08:09:12.832Z,12.20
2019-04-20T08:10:04.013Z,10.50
2019-04-20T08:11:13.867Z,13.10
2019-04-20T08:12:19.350Z,10.50
2019-04-20T08:13:30.561Z,12.50
2019-04-20T08:14:24.230Z,11.10
2019-04-20T08:15:32.252Z,10.90
2019-04-20T08:16:24.345Z,12.10
2019-04-20T08:17:41.915Z,12.30
2019-04-20T08:18:21.502Z,12.40
2019-04-20T08:19:17.627Z,12.40
2019-04-20T08:20:15.828Z,11.40
2019-04-20T08:21:12.942Z,12.90
2019-04-20T08:22:21.879Z,12.00
2019-04-20T08:23:18.564Z,10.00
2019-04-20T08:24:17.099Z,11.70
2019-04-20T08:25:12.534Z,12.70
2019-04-20T08:26:07.805Z,14.00
2019-04-20T08:27:01.067Z,12.70
2019-04-20T08:27:57.167Z,11.80
2019-04-20T08:29:01.807Z,12.20
2019-04-20T08:30:09.191Z,11.60
2019-04-20T08:31:10.365Z,10.80
2019-04-20T08:32:17.911Z,11.20
2019-04-20T08:33:14.513Z,11.20
2019-04-20T08:34:38.323Z,10.70
2019-04-20T08:35:23.144Z,11.10
2019-04-20T08:36:18.642Z,12.10
2019-04-20T08:37:17.330Z,10.30
2019-04-20T08:40:19.796Z,10.90
2019-04-20T08:41:12.876Z,10.50
2019-04-20T08:42:16.469Z,11.70
2019-04-20T08:43:34.200Z,9.80
2019-04-20T08:44:42.619Z,12.00
2019-04-20T08:45:16.323Z,10.20
2019-04-20T08:46:15.069Z,11.50
2019-04-20T08:47:27.434Z,11.60
2019-04-20T08:48:23.176Z,10.80
2019-04-20T08:49:27.721Z,12.40
2019-04-20T08:50:19.908Z,10.20
2019-04-20T08:51:19.494Z,11.70
2019-04-20T08:52:38.409Z,12.20
2019-04-20T08:53:24.792Z,13.00
2019-04-20T08:54:18.005Z,12.00
2019-04-20T08:55:14.956Z,10.30
2019-04-20T08:56:11.932Z,11.20
2019-04-20T08:57:01.233Z,11.50
2019-04-20T08:57:56.808Z,13.00
2019-04-20T08:58:57.071Z,10.60
2019-04-20T08:59:56.068Z,11.00
2019-04-20T09:01:01.326Z,12.60
2019-04-20T09:01:58.924Z,12.60
2019-04-20T09:03:05.736Z,12.20
2019-04-20T09:04:08.997Z,11.30
2019-04-20T09:05:03.155Z,13.80
2019-04-20T09:06:06.722Z,11.30
2019-04-20T09:07:07.723Z,13.30
2019-04-20T09:08:06.742Z,11.10
2019-04-20T09:09:22.424Z,10.70
2019-04-20T09:10:24.926Z,11.80
2019-04-20T09:11:15.362Z,10.90
2019-04-20T09:12:14.548Z,11.60
2019-04-20T09:13:08.406Z,9.90
2019-04-20T09:14:00.173Z,10.80
2019-04-20T09:14:57.355Z,11.60
2019-04-20T09:15:55.681Z,11.80
2019-04-20T09:17:00.061Z,10.90
2019-04-20T09:18:00.995Z,13.50
2019-04-20T09:19:03.611Z,11.50
2019-04-20T09:20:06.275Z,10.20
2019-04-20T09:21:05.024Z,12.10
2019-04-20T09:22:06.407Z,9.00
2019-04-20T09:23:13.218Z,10.70
2019-04-20T09:24:21.739Z,12.90
2019-04-20T09:25:27.798Z,11.30
2019-04-20T09:26:15.023Z,11.80
2019-04-20T09:27:12.924Z,12.00
2019-04-20T09:28:07.250Z,10.30
2019-04-20T09:29:06.883Z,14.40
2019-04-20T09:30:21.589Z,9.40
2019-04-20T09:31:13.242Z,12.30
2019-04-20T09:32:20.911Z,10.80
2019-04-20T09:33:14.674Z,10.80
2019-04-20T09:34:14.422Z,10.50
2019-04-20T09:35:13.545Z,11.20
2019-04-20T09:36:10.316Z,10.90
2019-04-20T09:37:16.479Z,9.50
2019-04-20T09:38:11.807Z,10.00
2019-04-20T09:39:10.418Z,12.10
2019-04-20T09:40:15.488Z,7.60
2019-04-20T09:41:22.006Z,10.80
2019-04-20T09:42:01.447Z,7.70
2019-04-20T09:42:56.348Z,9.50
2019-04-20T09:43:56.152Z,10.40
2019-04-20T09:44:58.975Z,9.60
2019-04-20T09:46:01.659Z,11.50
2019-04-20T09:46:59.694Z,7.90
2019-04-20T09:47:57.136Z,11.50
2019-04-20T09:48:59.889Z,9.40
2019-04-20T09:50:08.982Z,9.40
2019-04-20T09:51:19.239Z,7.60
2019-04-20T09:52:12.230Z,8.30
2019-04-20T09:53:11.534Z,8.20
2019-04-20T09:54:12.507Z,8.10
2019-04-20T09:55:12.118Z,10.80
2019-04-20T09:56:14.377Z,7.40
2019-04-20T09:57:13.785Z,9.20
2019-04-20T09:58:09.792Z,6.50
2019-04-20T09:59:19.221Z,11.20
2019-04-20T10:00:13.400Z,7.40
2019-04-20T10:01:09.963Z,8.60
2019-04-20T10:02:06.628Z,7.20
2019-04-20T10:02:56.168Z,6.50
2019-04-20T10:03:55.150Z,7.70
2019-04-20T10:04:55.576Z,6.90
2019-04-20T10:05:55.915Z,7.70
2019-04-20T10:06:55.308Z,8.60
2019-04-20T10:07:59.893Z,6.70
2019-04-20T10:08:59.809Z,8.60
2019-04-20T10:09:56.098Z,7.60
2019-04-20T10:10:56.077Z,8.30
2019-04-20T10:11:55.406Z,8.70
2019-04-20T10:12:56.291Z,7.20
2019-04-20T10:13:56.423Z,6.60
2019-04-20T10:14:57.625Z,7.10
2019-04-20T10:15:56.037Z,8.30
2019-04-20T10:16:55.858Z,7.30
2019-04-20T10:17:56.066Z,8.40
2019-04-20T10:18:55.310Z,6.00
2019-04-20T10:19:55.681Z,5.40
2019-04-20T10:20:55.784Z,6.10
2019-04-20T10:21:54.987Z,7.20
2019-04-20T10:22:56.281Z,5.30
2019-04-20T10:23:54.964Z,7.40
2019-04-20T10:24:55.931Z,6.80
2019-04-20T10:25:56.422Z,6.60
2019-04-20T10:26:54.944Z,8.70
2019-04-20T10:27:55.774Z,7.20
2019-04-20T10:28:55.259Z,6.70
2019-04-20T10:29:55.557Z,7.70
2019-04-20T10:30:54.900Z,8.10
2019-04-20T10:31:58.351Z,7.90
2019-04-20T10:32:55.899Z,6.70
2019-04-20T10:33:55.642Z,8.00
2019-04-20T10:34:54.945Z,7.60
2019-04-20T10:35:54.861Z,7.10
2019-04-20T10:36:55.510Z,7.30
2019-04-20T10:37:55.652Z,7.20
2019-04-20T10:38:54.887Z,7.20
2019-04-20T10:39:54.820Z,7.90
2019-04-20T10:41:05.338Z,6.70
2019-04-20T10:41:59.535Z,4.90
2019-04-20T10:42:59.436Z,6.50
2019-04-20T10:43:56.706Z,7.00
2019-04-20T10:44:56.863Z,7.30
2019-04-20T10:45:55.026Z,6.50
2019-04-20T10:46:54.766Z,7.80
2019-04-20T10:47:55.044Z,5.80
2019-04-20T10:48:57.244Z,7.90
2019-04-20T10:49:56.589Z,7.10
2019-04-20T10:50:54.848Z,5.40
2019-04-20T10:51:55.779Z,5.50
2019-04-20T10:52:55.996Z,6.50
2019-04-20T10:53:56.084Z,7.20
2019-04-20T10:54:54.680Z,7.00
2019-04-20T10:55:55.698Z,7.60
2019-04-20T10:56:55.462Z,6.90
2019-04-20T10:57:55.608Z,6.30
2019-04-20T10:58:55.855Z,6.50
2019-04-20T10:59:55.373Z,5.60
2019-04-20T11:00:55.723Z,7.40
2019-04-20T11:01:55.838Z,5.70
2019-04-20T11:02:55.461Z,9.40
2019-04-20T11:03:54.599Z,8.90
2019-04-20T11:04:54.846Z,6.50
2019-04-20T11:05:54.580Z,7.30
2019-04-20T11:06:54.596Z,5.50
2019-04-20T11:07:54.757Z,7.30
2019-04-20T11:08:54.553Z,6.20
2019-04-20T11:10:05.284Z,7.30
2019-04-20T11:11:08.324Z,6.60
2019-04-20T11:11:56.572Z,6.50
2019-04-20T11:12:54.517Z,7.30
2019-04-20T11:13:55.343Z,8.50
2019-04-20T11:14:54.579Z,6.20
2019-04-20T11:15:54.656Z,8.90
2019-04-20T11:16:54.484Z,5.80
2019-04-20T11:17:55.397Z,6.10
2019-04-20T11:18:55.584Z,6.80
2019-04-20T11:19:54.995Z,6.30
2019-04-20T11:20:55.333Z,7.00
2019-04-20T11:21:54.520Z,5.60
2019-04-20T11:22:54.426Z,6.00
2019-04-20T11:23:54.415Z,6.80
2019-04-20T11:24:54.407Z,7.30
2019-04-20T11:25:54.399Z,8.30
2019-04-20T11:26:54.388Z,6.20
2019-04-20T11:27:54.497Z,7.90
2019-04-20T11:28:55.608Z,8.40
2019-04-20T11:29:54.360Z,7.20
2019-04-20T11:30:54.354Z,7.70
2019-04-20T11:31:56.073Z,7.30
2019-04-20T11:32:54.333Z,5.70
2019-04-20T11:33:54.322Z,8.00
2019-04-20T11:34:56.463Z,6.80
2019-04-20T11:35:54.985Z,7.50
2019-04-20T11:36:55.085Z,5.50
2019-04-20T11:37:55.451Z,8.00
2019-04-20T11:38:54.474Z,7.30
2019-04-20T11:39:54.866Z,7.20
2019-04-20T11:41:04.071Z,7.90
2019-04-20T11:41:55.925Z,8.90
2019-04-20T11:42:55.379Z,6.70
2019-04-20T11:43:55.636Z,8.00
2019-04-20T11:44:54.912Z,7.90
2019-04-20T11:45:54.560Z,6.20
2019-04-20T11:46:54.515Z,7.40
2019-04-20T11:47:55.622Z,7.00
2019-04-20T11:48:55.318Z,8.70
2019-04-20T11:49:55.392Z,7.50
2019-04-20T11:50:54.163Z,8.50
2019-04-20T11:51:55.337Z,9.90
2019-04-20T11:52:55.264Z,8.10
2019-04-20T11:53:54.404Z,6.30
2019-04-20T11:54:54.653Z,9.20
2019-04-20T11:55:54.283Z,6.20
2019-04-20T11:56:55.368Z,9.20
2019-04-20T11:57:54.223Z,7.20
2019-04-20T11:58:54.091Z,6.80
2019-04-20T11:59:54.990Z,6.30
2019-04-20T12:01:03.207Z,8.40
2019-04-20T12:02:00.514Z,6.40
2019-04-20T12:02:58.556Z,6.80
2019-04-20T12:04:01.710Z,7.10
2019-04-20T12:05:10.053Z,6.00
2019-04-20T12:05:57.898Z,6.80
2019-04-20T12:06:55.014Z,7.30
2019-04-20T12:07:55.294Z,7.40
2019-04-20T12:08:54.932Z,7.20
2019-04-20T12:09:59.373Z,6.70
2019-04-20T12:10:59.893Z,8.30
2019-04-20T12:12:06.906Z,6.80
2019-04-20T12:12:55.702Z,6.80
2019-04-20T12:13:54.531Z,7.70
2019-04-20T12:14:54.787Z,6.70
2019-04-20T12:15:53.987Z,7.20
2019-04-20T12:16:53.922Z,9.40
2019-04-20T12:17:53.933Z,7.10
2019-04-20T12:18:54.660Z,6.10
2019-04-20T12:19:53.894Z,6.80
2019-04-20T12:20:54.851Z,7.90
2019-04-20T12:21:53.949Z,7.90
2019-04-20T12:22:54.615Z,8.30
2019-04-20T12:23:54.128Z,7.40
2019-04-20T12:24:54.114Z,7.30
2019-04-20T12:25:54.358Z,9.00
2019-04-20T12:26:54.625Z,7.30
2019-04-20T12:27:56.791Z,8.50
2019-04-20T12:28:55.805Z,7.60
2019-04-20T12:29:54.072Z,9.20
2019-04-20T12:30:58.352Z,7.70
2019-04-20T12:32:00.019Z,7.90
2019-04-20T12:32:58.557Z,7.20
2019-04-20T12:33:54.853Z,6.10
2019-04-20T12:34:54.084Z,7.80
2019-04-20T12:35:54.195Z,8.50
2019-04-20T12:36:53.732Z,6.60
2019-04-20T12:37:54.674Z,6.30
2019-04-20T12:38:54.934Z,7.10
2019-04-20T12:39:53.702Z,8.10
2019-04-20T12:40:53.695Z,6.00
2019-04-20T12:41:58.297Z,6.00
2019-04-20T12:42:55.020Z,8.60
2019-04-20T12:43:53.880Z,7.30
2019-04-20T12:44:53.654Z,8.80
2019-04-20T12:45:53.858Z,8.00
2019-04-20T12:46:53.965Z,9.00
2019-04-20T12:47:53.624Z,8.80
2019-04-20T12:48:53.626Z,8.40
2019-04-20T12:49:53.816Z,6.60
2019-04-20T12:50:53.594Z,8.00
2019-04-20T12:51:58.038Z,6.50
2019-04-20T12:52:54.793Z,6.90
2019-04-20T12:53:53.565Z,8.00
2019-04-20T12:54:54.550Z,8.30
2019-04-20T12:55:54.782Z,8.30
2019-04-20T12:56:53.534Z,8.90
2019-04-20T12:57:54.491Z,11.60
2019-04-20T12:58:53.653Z,7.60
2019-04-20T12:59:54.067Z,10.20
2019-04-20T13:00:54.363Z,7.30
2019-04-20T13:01:53.487Z,7.40
2019-04-20T13:02:53.750Z,8.30
2019-04-20T13:03:53.464Z,6.70
2019-04-20T13:04:53.493Z,6.40
2019-04-20T13:05:54.223Z,9.10
2019-04-20T13:06:55.211Z,7.50
2019-04-20T13:07:58.920Z,10.00
2019-04-20T13:08:57.474Z,9.60
2019-04-20T13:09:54.681Z,9.60
2019-04-20T13:10:54.781Z,7.90
2019-04-20T13:11:59.414Z,7.80
2019-04-20T13:12:54.486Z,6.90
2019-04-20T13:13:54.543Z,9.10
2019-04-20T13:14:53.355Z,6.90
2019-04-20T13:15:54.292Z,8.80
2019-04-20T13:16:54.837Z,10.20
2019-04-20T13:17:54.268Z,7.50
2019-04-20T13:18:53.308Z,7.60
2019-04-20T13:19:53.430Z,8.00
2019-04-20T13:20:56.165Z,8.10
2019-04-20T13:21:53.282Z,8.40
2019-04-20T13:22:53.273Z,8.40
2019-04-20T13:23:53.263Z,10.50
2019-04-20T13:24:53.245Z,8.80
2019-04-20T13:25:53.237Z,9.00
2019-04-20T13:26:53.226Z,7.30
2019-04-20T13:27:53.216Z,7.80